sensor_id;sensor_type;location;lat;lon;timestamp;P1;durP1;ratioP1;P2;durP2;ratioP2
48241;SDS011;34041;51.812;4.622;2022-08-11T00:00:06;3.87;;;1.93;;
48241;SDS011;34041;51.812;4.622;2022-08-11T00:03:09;4.95;;;3.00;;
48241;SDS011;34041;51.812;4.622;2022-08-11T00:06:09;4.03;;;2.10;;
48241;SDS011;34041;51.812;4.622;2022-08-11T00:09:11;3.25;;;2.30;;
48241;SDS011;34041;51.812;4.622;2022-08-11T00:12:15;3.13;;;2.00;;
48241;SDS011;34041;51.812;4.622;2022-08-11T00:15:17;3.28;;;1.92;;
48241;SDS011;34041;51.812;4.622;2022-08-11T00:18:17;2.92;;;1.80;;
48241;SDS011;34041;51.812;4.622;2022-08-11T00:21:19;5.53;;;1.90;;
48241;SDS011;34041;51.812;4.622;2022-08-11T00:24:19;6.43;;;2.58;;
48241;SDS011;34041;51.812;4.622;2022-08-11T00:27:28;3.50;;;2.42;;
48241;SDS011;34041;51.812;4.622;2022-08-11T00:30:39;3.78;;;2.30;;
48241;SDS011;34041;51.812;4.622;2022-08-11T00:33:43;4.00;;;2.13;;
48241;SDS011;34041;51.812;4.622;2022-08-11T00:36:59;4.03;;;1.83;;
48241;SDS011;34041;51.812;4.622;2022-08-11T00:40:00;5.15;;;2.33;;
48241;SDS011;34041;51.812;4.622;2022-08-11T00:49:33;5.32;;;2.10;;
48241;SDS011;34041;51.812;4.622;2022-08-11T00:52:38;4.63;;;1.65;;
48241;SDS011;34041;51.812;4.622;2022-08-11T01:01:50;3.10;;;2.58;;
48241;SDS011;34041;51.812;4.622;2022-08-11T01:11:42;8.23;;;2.38;;
48241;SDS011;34041;51.812;4.622;2022-08-11T01:40:44;4.35;;;2.28;;
48241;SDS011;34041;51.812;4.622;2022-08-11T01:50:53;4.63;;;2.70;;
48241;SDS011;34041;51.812;4.622;2022-08-11T02:00:16;5.97;;;2.60;;
48241;SDS011;34041;51.812;4.622;2022-08-11T02:03:23;10.10;;;2.28;;
48241;SDS011;34041;51.812;4.622;2022-08-11T02:13:41;14.13;;;2.47;;
48241;SDS011;34041;51.812;4.622;2022-08-11T02:20:02;6.40;;;2.67;;
48241;SDS011;34041;51.812;4.622;2022-08-11T02:23:39;4.13;;;2.30;;
48241;SDS011;34041;51.812;4.622;2022-08-11T02:26:46;3.92;;;2.13;;
48241;SDS011;34041;51.812;4.622;2022-08-11T02:29:51;6.70;;;2.60;;
48241;SDS011;34041;51.812;4.622;2022-08-11T02:32:59;8.20;;;3.17;;
48241;SDS011;34041;51.812;4.622;2022-08-11T02:36:25;4.55;;;2.55;;
48241;SDS011;34041;51.812;4.622;2022-08-11T02:39:30;2.63;;;2.08;;
48241;SDS011;34041;51.812;4.622;2022-08-11T02:55:43;3.17;;;2.55;;
48241;SDS011;34041;51.812;4.622;2022-08-11T02:59:02;3.38;;;2.63;;
48241;SDS011;34041;51.812;4.622;2022-08-11T03:08:29;3.17;;;2.38;;
48241;SDS011;34041;51.812;4.622;2022-08-11T03:14:57;2.78;;;2.20;;
48241;SDS011;34041;51.812;4.622;2022-08-11T03:18:22;4.57;;;2.55;;
48241;SDS011;34041;51.812;4.622;2022-08-11T03:21:28;3.67;;;2.05;;
48241;SDS011;34041;51.812;4.622;2022-08-11T03:27:57;7.30;;;2.95;;
48241;SDS011;34041;51.812;4.622;2022-08-11T03:34:20;4.82;;;3.15;;
48241;SDS011;34041;51.812;4.622;2022-08-11T03:44:29;5.03;;;3.00;;
48241;SDS011;34041;51.812;4.622;2022-08-11T03:47:50;4.45;;;2.78;;
48241;SDS011;34041;51.812;4.622;2022-08-11T03:50:57;5.53;;;2.67;;
48241;SDS011;34041;51.812;4.622;2022-08-11T03:54:13;6.63;;;2.50;;
48241;SDS011;34041;51.812;4.622;2022-08-11T04:19:46;3.70;;;2.92;;
48241;SDS011;34041;51.812;4.622;2022-08-11T04:36:01;3.67;;;2.55;;
48241;SDS011;34041;51.812;4.622;2022-08-11T04:39:15;4.05;;;2.47;;
48241;SDS011;34041;51.812;4.622;2022-08-11T05:03:08;9.50;;;3.97;;
48241;SDS011;34041;51.812;4.622;2022-08-11T05:09:27;19.35;;;5.43;;
48241;SDS011;34041;51.812;4.622;2022-08-11T05:12:29;17.90;;;4.97;;
48241;SDS011;34041;51.812;4.622;2022-08-11T05:15:35;7.97;;;4.05;;
48241;SDS011;34041;51.812;4.622;2022-08-11T05:18:59;11.93;;;4.18;;
48241;SDS011;34041;51.812;4.622;2022-08-11T05:22:18;10.30;;;3.90;;
48241;SDS011;34041;51.812;4.622;2022-08-11T05:25:37;9.25;;;4.32;;
48241;SDS011;34041;51.812;4.622;2022-08-11T05:29:00;9.02;;;4.20;;
48241;SDS011;34041;51.812;4.622;2022-08-11T05:32:20;9.15;;;4.30;;
48241;SDS011;34041;51.812;4.622;2022-08-11T05:35:42;7.85;;;3.47;;
48241;SDS011;34041;51.812;4.622;2022-08-11T05:38:48;9.98;;;3.85;;
48241;SDS011;34041;51.812;4.622;2022-08-11T05:42:09;8.60;;;3.22;;
48241;SDS011;34041;51.812;4.622;2022-08-11T05:45:28;7.57;;;3.47;;
48241;SDS011;34041;51.812;4.622;2022-08-11T05:48:49;5.78;;;3.08;;
48241;SDS011;34041;51.812;4.622;2022-08-11T05:52:13;9.38;;;3.33;;
48241;SDS011;34041;51.812;4.622;2022-08-11T05:55:32;8.10;;;3.72;;
48241;SDS011;34041;51.812;4.622;2022-08-11T05:58:52;5.32;;;3.08;;
48241;SDS011;34041;51.812;4.622;2022-08-11T06:01:59;6.90;;;3.30;;
48241;SDS011;34041;51.812;4.622;2022-08-11T06:05:00;5.25;;;3.28;;
48241;SDS011;34041;51.812;4.622;2022-08-11T06:08:01;5.45;;;3.03;;
48241;SDS011;34041;51.812;4.622;2022-08-11T06:11:02;6.20;;;3.10;;
48241;SDS011;34041;51.812;4.622;2022-08-11T06:14:03;7.15;;;3.05;;
48241;SDS011;34041;51.812;4.622;2022-08-11T06:17:04;6.80;;;3.88;;
48241;SDS011;34041;51.812;4.622;2022-08-11T06:20:06;6.07;;;2.90;;
48241;SDS011;34041;51.812;4.622;2022-08-11T06:23:08;4.22;;;2.58;;
48241;SDS011;34041;51.812;4.622;2022-08-11T06:26:10;5.45;;;3.20;;
48241;SDS011;34041;51.812;4.622;2022-08-11T06:29:11;5.35;;;2.92;;
48241;SDS011;34041;51.812;4.622;2022-08-11T06:32:17;5.95;;;2.45;;
48241;SDS011;34041;51.812;4.622;2022-08-11T06:35:20;4.43;;;2.70;;
48241;SDS011;34041;51.812;4.622;2022-08-11T06:41:48;5.45;;;2.35;;
48241;SDS011;34041;51.812;4.622;2022-08-11T06:44:54;3.70;;;2.10;;
48241;SDS011;34041;51.812;4.622;2022-08-11T06:47:57;4.18;;;2.78;;
48241;SDS011;34041;51.812;4.622;2022-08-11T06:51:01;3.78;;;2.50;;
48241;SDS011;34041;51.812;4.622;2022-08-11T06:54:11;5.55;;;2.70;;
48241;SDS011;34041;51.812;4.622;2022-08-11T06:57:12;6.20;;;2.65;;
48241;SDS011;34041;51.812;4.622;2022-08-11T07:00:32;6.30;;;2.78;;
48241;SDS011;34041;51.812;4.622;2022-08-11T07:03:36;4.32;;;2.10;;
48241;SDS011;34041;51.812;4.622;2022-08-11T07:09:44;4.95;;;2.25;;
48241;SDS011;34041;51.812;4.622;2022-08-11T07:13:06;3.25;;;2.35;;
48241;SDS011;34041;51.812;4.622;2022-08-11T07:16:27;7.32;;;2.40;;
48241;SDS011;34041;51.812;4.622;2022-08-11T07:19:28;3.25;;;2.40;;
48241;SDS011;34041;51.812;4.622;2022-08-11T07:22:55;4.63;;;2.13;;
48241;SDS011;34041;51.812;4.622;2022-08-11T07:26:14;3.85;;;3.25;;
48241;SDS011;34041;51.812;4.622;2022-08-11T07:29:34;5.88;;;3.15;;
48241;SDS011;34041;51.812;4.622;2022-08-11T07:32:50;3.10;;;2.25;;
48241;SDS011;34041;51.812;4.622;2022-08-11T07:35:51;2.85;;;1.70;;
48241;SDS011;34041;51.812;4.622;2022-08-11T07:38:54;3.10;;;2.10;;
48241;SDS011;34041;51.812;4.622;2022-08-11T07:41:55;3.20;;;2.30;;
48241;SDS011;34041;51.812;4.622;2022-08-11T07:44:56;4.00;;;2.63;;
48241;SDS011;34041;51.812;4.622;2022-08-11T07:48:16;4.03;;;2.30;;
48241;SDS011;34041;51.812;4.622;2022-08-11T07:51:36;2.53;;;1.75;;
48241;SDS011;34041;51.812;4.622;2022-08-11T07:54:57;3.15;;;2.10;;
48241;SDS011;34041;51.812;4.622;2022-08-11T07:57:58;3.17;;;2.22;;
48241;SDS011;34041;51.812;4.622;2022-08-11T08:01:18;3.20;;;1.98;;
48241;SDS011;34041;51.812;4.622;2022-08-11T08:04:38;3.20;;;2.05;;
48241;SDS011;34041;51.812;4.622;2022-08-11T08:07:58;4.85;;;2.30;;
48241;SDS011;34041;51.812;4.622;2022-08-11T08:11:18;2.65;;;1.92;;
48241;SDS011;34041;51.812;4.622;2022-08-11T08:14:38;3.72;;;2.30;;
48241;SDS011;34041;51.812;4.622;2022-08-11T08:17:57;3.00;;;1.95;;
48241;SDS011;34041;51.812;4.622;2022-08-11T08:20:58;3.08;;;2.13;;
48241;SDS011;34041;51.812;4.622;2022-08-11T08:24:11;2.78;;;1.77;;
48241;SDS011;34041;51.812;4.622;2022-08-11T08:27:12;2.97;;;1.90;;
48241;SDS011;34041;51.812;4.622;2022-08-11T08:30:13;2.97;;;1.95;;
48241;SDS011;34041;51.812;4.622;2022-08-11T08:33:32;3.38;;;2.13;;
48241;SDS011;34041;51.812;4.622;2022-08-11T08:36:32;2.90;;;1.67;;
48241;SDS011;34041;51.812;4.622;2022-08-11T08:39:32;2.92;;;2.05;;
48241;SDS011;34041;51.812;4.622;2022-08-11T08:42:36;2.63;;;1.58;;
48241;SDS011;34041;51.812;4.622;2022-08-11T08:45:37;4.22;;;1.75;;
48241;SDS011;34041;51.812;4.622;2022-08-11T08:48:38;2.45;;;1.90;;
48241;SDS011;34041;51.812;4.622;2022-08-11T08:51:39;2.83;;;2.00;;
48241;SDS011;34041;51.812;4.622;2022-08-11T08:54:42;3.25;;;2.00;;
48241;SDS011;34041;51.812;4.622;2022-08-11T08:57:43;3.15;;;1.65;;
48241;SDS011;34041;51.812;4.622;2022-08-11T09:00:44;4.20;;;1.92;;
48241;SDS011;34041;51.812;4.622;2022-08-11T09:03:45;3.15;;;1.95;;
48241;SDS011;34041;51.812;4.622;2022-08-11T09:06:45;2.45;;;1.92;;
48241;SDS011;34041;51.812;4.622;2022-08-11T09:09:47;4.22;;;1.67;;
48241;SDS011;34041;51.812;4.622;2022-08-11T09:12:47;3.15;;;2.17;;
48241;SDS011;34041;51.812;4.622;2022-08-11T09:15:49;4.90;;;2.20;;
48241;SDS011;34041;51.812;4.622;2022-08-11T09:18:49;3.22;;;2.28;;
48241;SDS011;34041;51.812;4.622;2022-08-11T09:21:50;3.90;;;2.60;;
48241;SDS011;34041;51.812;4.622;2022-08-11T09:25:09;2.90;;;2.05;;
48241;SDS011;34041;51.812;4.622;2022-08-11T09:28:28;4.07;;;2.45;;
48241;SDS011;34041;51.812;4.622;2022-08-11T09:31:30;4.25;;;2.38;;
48241;SDS011;34041;51.812;4.622;2022-08-11T09:34:33;3.03;;;2.30;;
48241;SDS011;34041;51.812;4.622;2022-08-11T09:37:35;3.50;;;1.90;;
48241;SDS011;34041;51.812;4.622;2022-08-11T09:40:55;2.78;;;2.38;;
48241;SDS011;34041;51.812;4.622;2022-08-11T09:43:55;3.15;;;1.98;;
48241;SDS011;34041;51.812;4.622;2022-08-11T09:50:20;2.63;;;1.75;;
48241;SDS011;34041;51.812;4.622;2022-08-11T09:53:21;4.38;;;2.30;;
48241;SDS011;34041;51.812;4.622;2022-08-11T09:56:23;3.20;;;2.20;;
48241;SDS011;34041;51.812;4.622;2022-08-11T09:59:42;3.35;;;2.13;;
48241;SDS011;34041;51.812;4.622;2022-08-11T10:02:45;3.20;;;2.20;;
48241;SDS011;34041;51.812;4.622;2022-08-11T10:05:46;3.53;;;2.85;;
48241;SDS011;34041;51.812;4.622;2022-08-11T10:09:06;4.95;;;2.63;;
48241;SDS011;34041;51.812;4.622;2022-08-11T10:12:08;4.30;;;2.00;;
48241;SDS011;34041;51.812;4.622;2022-08-11T10:15:10;3.95;;;2.42;;
48241;SDS011;34041;51.812;4.622;2022-08-11T10:18:34;3.05;;;1.90;;
48241;SDS011;34041;51.812;4.622;2022-08-11T10:21:42;2.88;;;2.03;;
48241;SDS011;34041;51.812;4.622;2022-08-11T10:24:43;3.75;;;1.85;;
48241;SDS011;34041;51.812;4.622;2022-08-11T10:28:03;3.50;;;2.17;;
48241;SDS011;34041;51.812;4.622;2022-08-11T10:31:06;2.97;;;2.10;;
48241;SDS011;34041;51.812;4.622;2022-08-11T10:34:25;3.70;;;2.58;;
48241;SDS011;34041;51.812;4.622;2022-08-11T10:37:26;2.88;;;1.95;;
48241;SDS011;34041;51.812;4.622;2022-08-11T10:40:33;3.83;;;2.13;;
48241;SDS011;34041;51.812;4.622;2022-08-11T10:43:35;4.78;;;2.42;;
48241;SDS011;34041;51.812;4.622;2022-08-11T10:46:37;4.72;;;2.00;;
48241;SDS011;34041;51.812;4.622;2022-08-11T10:49:56;3.35;;;2.20;;
48241;SDS011;34041;51.812;4.622;2022-08-11T10:53:16;2.50;;;1.90;;
48241;SDS011;34041;51.812;4.622;2022-08-11T10:56:35;3.42;;;2.35;;
48241;SDS011;34041;51.812;4.622;2022-08-11T10:59:55;2.88;;;2.40;;
48241;SDS011;34041;51.812;4.622;2022-08-11T11:02:56;2.72;;;1.77;;
48241;SDS011;34041;51.812;4.622;2022-08-11T11:06:04;3.22;;;2.30;;
48241;SDS011;34041;51.812;4.622;2022-08-11T11:09:07;3.15;;;2.20;;
48241;SDS011;34041;51.812;4.622;2022-08-11T11:15:33;4.63;;;1.83;;
48241;SDS011;34041;51.812;4.622;2022-08-11T11:18:53;2.88;;;1.83;;
48241;SDS011;34041;51.812;4.622;2022-08-11T11:21:54;3.03;;;2.20;;
48241;SDS011;34041;51.812;4.622;2022-08-11T11:25:29;3.03;;;1.80;;
48241;SDS011;34041;51.812;4.622;2022-08-11T11:38:11;2.50;;;1.88;;
48241;SDS011;34041;51.812;4.622;2022-08-11T11:41:12;2.85;;;1.83;;
48241;SDS011;34041;51.812;4.622;2022-08-11T11:44:24;2.80;;;2.20;;
48241;SDS011;34041;51.812;4.622;2022-08-11T11:47:24;2.83;;;1.80;;
48241;SDS011;34041;51.812;4.622;2022-08-11T11:50:26;2.35;;;1.80;;
48241;SDS011;34041;51.812;4.622;2022-08-11T11:53:27;2.65;;;1.98;;
48241;SDS011;34041;51.812;4.622;2022-08-11T11:56:27;2.75;;;2.25;;
48241;SDS011;34041;51.812;4.622;2022-08-11T11:59:29;2.97;;;2.17;;
48241;SDS011;34041;51.812;4.622;2022-08-11T12:02:49;3.85;;;2.33;;
48241;SDS011;34041;51.812;4.622;2022-08-11T12:05:51;2.72;;;1.75;;
48241;SDS011;34041;51.812;4.622;2022-08-11T12:08:53;3.92;;;2.15;;
48241;SDS011;34041;51.812;4.622;2022-08-11T12:11:54;2.50;;;1.40;;
48241;SDS011;34041;51.812;4.622;2022-08-11T12:15:12;2.70;;;2.05;;
48241;SDS011;34041;51.812;4.622;2022-08-11T12:18:13;2.70;;;1.70;;
48241;SDS011;34041;51.812;4.622;2022-08-11T12:21:14;3.88;;;2.13;;
48241;SDS011;34041;51.812;4.622;2022-08-11T12:24:15;3.22;;;1.88;;
48241;SDS011;34041;51.812;4.622;2022-08-11T12:27:33;2.70;;;1.80;;
48241;SDS011;34041;51.812;4.622;2022-08-11T12:30:34;2.50;;;1.80;;
48241;SDS011;34041;51.812;4.622;2022-08-11T12:33:38;3.10;;;1.60;;
48241;SDS011;34041;51.812;4.622;2022-08-11T12:36:40;3.10;;;2.40;;
48241;SDS011;34041;51.812;4.622;2022-08-11T12:39:49;3.85;;;2.10;;
48241;SDS011;34041;51.812;4.622;2022-08-11T12:43:09;3.70;;;2.30;;
48241;SDS011;34041;51.812;4.622;2022-08-11T12:46:47;3.88;;;2.08;;
48241;SDS011;34041;51.812;4.622;2022-08-11T12:49:47;2.92;;;1.95;;
48241;SDS011;34041;51.812;4.622;2022-08-11T12:53:07;2.97;;;2.03;;
48241;SDS011;34041;51.812;4.622;2022-08-11T12:56:10;3.42;;;2.60;;
48241;SDS011;34041;51.812;4.622;2022-08-11T12:59:29;2.55;;;1.80;;
48241;SDS011;34041;51.812;4.622;2022-08-11T13:02:48;3.20;;;1.90;;
48241;SDS011;34041;51.812;4.622;2022-08-11T13:06:07;2.45;;;1.67;;
48241;SDS011;34041;51.812;4.622;2022-08-11T13:09:08;2.60;;;2.20;;
48241;SDS011;34041;51.812;4.622;2022-08-11T13:12:10;2.72;;;2.15;;
48241;SDS011;34041;51.812;4.622;2022-08-11T13:15:31;2.50;;;1.55;;
48241;SDS011;34041;51.812;4.622;2022-08-11T13:18:31;3.13;;;1.83;;
48241;SDS011;34041;51.812;4.622;2022-08-11T13:21:33;3.78;;;2.47;;
48241;SDS011;34041;51.812;4.622;2022-08-11T13:24:33;4.05;;;2.13;;
48241;SDS011;34041;51.812;4.622;2022-08-11T13:27:34;2.33;;;1.77;;
48241;SDS011;34041;51.812;4.622;2022-08-11T13:30:35;3.00;;;2.10;;
48241;SDS011;34041;51.812;4.622;2022-08-11T13:33:54;3.30;;;2.50;;
48241;SDS011;34041;51.812;4.622;2022-08-11T13:36:56;4.20;;;1.85;;
48241;SDS011;34041;51.812;4.622;2022-08-11T13:39:56;2.90;;;2.30;;
48241;SDS011;34041;51.812;4.622;2022-08-11T13:42:57;3.03;;;2.10;;
48241;SDS011;34041;51.812;4.622;2022-08-11T13:45:58;2.90;;;2.13;;
48241;SDS011;34041;51.812;4.622;2022-08-11T13:49:17;3.83;;;2.08;;
48241;SDS011;34041;51.812;4.622;2022-08-11T13:52:18;2.85;;;2.03;;
48241;SDS011;34041;51.812;4.622;2022-08-11T13:55:19;2.65;;;1.90;;
48241;SDS011;34041;51.812;4.622;2022-08-11T13:58:22;3.08;;;2.47;;
48241;SDS011;34041;51.812;4.622;2022-08-11T14:01:23;3.28;;;2.58;;
48241;SDS011;34041;51.812;4.622;2022-08-11T14:04:27;3.90;;;2.20;;
48241;SDS011;34041;51.812;4.622;2022-08-11T14:07:38;4.22;;;2.30;;
48241;SDS011;34041;51.812;4.622;2022-08-11T14:10:40;2.80;;;2.33;;
48241;SDS011;34041;51.812;4.622;2022-08-11T14:13:41;3.10;;;2.30;;
48241;SDS011;34041;51.812;4.622;2022-08-11T14:16:42;4.57;;;2.40;;
48241;SDS011;34041;51.812;4.622;2022-08-11T14:19:43;3.60;;;2.35;;
48241;SDS011;34041;51.812;4.622;2022-08-11T14:22:44;3.47;;;2.13;;
48241;SDS011;34041;51.812;4.622;2022-08-11T14:25:45;3.50;;;1.70;;
48241;SDS011;34041;51.812;4.622;2022-08-11T14:29:06;2.88;;;2.30;;
48241;SDS011;34041;51.812;4.622;2022-08-11T14:32:07;4.20;;;1.88;;
48241;SDS011;34041;51.812;4.622;2022-08-11T14:35:08;3.08;;;1.95;;
48241;SDS011;34041;51.812;4.622;2022-08-11T14:38:10;3.15;;;2.15;;
48241;SDS011;34041;51.812;4.622;2022-08-11T14:41:10;4.53;;;2.03;;
48241;SDS011;34041;51.812;4.622;2022-08-11T14:44:30;2.65;;;1.98;;
48241;SDS011;34041;51.812;4.622;2022-08-11T14:47:50;2.95;;;1.77;;
48241;SDS011;34041;51.812;4.622;2022-08-11T14:50:51;2.80;;;1.83;;
48241;SDS011;34041;51.812;4.622;2022-08-11T14:53:51;4.40;;;2.10;;
48241;SDS011;34041;51.812;4.622;2022-08-11T14:57:12;2.80;;;2.05;;
48241;SDS011;34041;51.812;4.622;2022-08-11T15:00:13;2.40;;;1.70;;
48241;SDS011;34041;51.812;4.622;2022-08-11T15:03:17;3.63;;;2.28;;
48241;SDS011;34041;51.812;4.622;2022-08-11T15:06:18;3.47;;;2.28;;
48241;SDS011;34041;51.812;4.622;2022-08-11T15:09:18;2.63;;;1.73;;
48241;SDS011;34041;51.812;4.622;2022-08-11T15:12:18;3.75;;;2.30;;
48241;SDS011;34041;51.812;4.622;2022-08-11T15:15:19;2.97;;;2.17;;
48241;SDS011;34041;51.812;4.622;2022-08-11T15:18:38;3.25;;;1.77;;
48241;SDS011;34041;51.812;4.622;2022-08-11T15:21:38;3.53;;;2.30;;
48241;SDS011;34041;51.812;4.622;2022-08-11T15:24:57;3.20;;;2.40;;
48241;SDS011;34041;51.812;4.622;2022-08-11T15:27:58;3.33;;;2.15;;
48241;SDS011;34041;51.812;4.622;2022-08-11T15:31:17;3.13;;;2.17;;
48241;SDS011;34041;51.812;4.622;2022-08-11T15:34:28;2.83;;;1.65;;
48241;SDS011;34041;51.812;4.622;2022-08-11T15:37:48;2.72;;;1.98;;
48241;SDS011;34041;51.812;4.622;2022-08-11T15:40:51;4.40;;;1.85;;
48241;SDS011;34041;51.812;4.622;2022-08-11T15:44:11;2.95;;;2.10;;
48241;SDS011;34041;51.812;4.622;2022-08-11T15:47:34;2.85;;;1.95;;
48241;SDS011;34041;51.812;4.622;2022-08-11T15:50:38;2.42;;;1.90;;
48241;SDS011;34041;51.812;4.622;2022-08-11T15:53:46;2.83;;;1.92;;
48241;SDS011;34041;51.812;4.622;2022-08-11T15:56:49;3.20;;;2.10;;
48241;SDS011;34041;51.812;4.622;2022-08-11T15:59:50;3.20;;;1.70;;
48241;SDS011;34041;51.812;4.622;2022-08-11T16:03:09;4.25;;;2.33;;
48241;SDS011;34041;51.812;4.622;2022-08-11T16:06:29;3.75;;;1.65;;
48241;SDS011;34041;51.812;4.622;2022-08-11T16:12:39;2.50;;;1.95;;
48241;SDS011;34041;51.812;4.622;2022-08-11T16:15:44;3.30;;;2.15;;
48241;SDS011;34041;51.812;4.622;2022-08-11T16:19:04;5.47;;;2.28;;
48241;SDS011;34041;51.812;4.622;2022-08-11T16:22:09;4.53;;;2.45;;
48241;SDS011;34041;51.812;4.622;2022-08-11T16:25:11;4.20;;;1.95;;
48241;SDS011;34041;51.812;4.622;2022-08-11T16:28:13;3.05;;;1.67;;
48241;SDS011;34041;51.812;4.622;2022-08-11T16:31:14;3.30;;;2.05;;
48241;SDS011;34041;51.812;4.622;2022-08-11T16:34:14;5.40;;;2.50;;
48241;SDS011;34041;51.812;4.622;2022-08-11T16:37:35;4.88;;;2.25;;
48241;SDS011;34041;51.812;4.622;2022-08-11T16:40:55;2.58;;;1.73;;
48241;SDS011;34041;51.812;4.622;2022-08-11T16:43:55;2.45;;;1.65;;
48241;SDS011;34041;51.812;4.622;2022-08-11T16:47:15;2.58;;;1.83;;
48241;SDS011;34041;51.812;4.622;2022-08-11T16:50:16;2.78;;;2.05;;
48241;SDS011;34041;51.812;4.622;2022-08-11T16:53:16;3.65;;;2.10;;
48241;SDS011;34041;51.812;4.622;2022-08-11T16:56:18;4.90;;;2.10;;
48241;SDS011;34041;51.812;4.622;2022-08-11T17:02:23;2.90;;;1.85;;
48241;SDS011;34041;51.812;4.622;2022-08-11T17:05:49;2.20;;;1.52;;
48241;SDS011;34041;51.812;4.622;2022-08-11T17:09:09;3.08;;;1.88;;
48241;SDS011;34041;51.812;4.622;2022-08-11T17:12:28;2.78;;;1.55;;
48241;SDS011;34041;51.812;4.622;2022-08-11T17:15:49;4.55;;;2.10;;
48241;SDS011;34041;51.812;4.622;2022-08-11T17:19:24;3.38;;;1.88;;
48241;SDS011;34041;51.812;4.622;2022-08-11T17:22:24;5.55;;;1.85;;
48241;SDS011;34041;51.812;4.622;2022-08-11T17:25:44;2.72;;;1.70;;
48241;SDS011;34041;51.812;4.622;2022-08-11T17:28:51;1.88;;;1.40;;
48241;SDS011;34041;51.812;4.622;2022-08-11T17:31:55;6.68;;;1.80;;
48241;SDS011;34041;51.812;4.622;2022-08-11T17:35:19;3.58;;;1.80;;
48241;SDS011;34041;51.812;4.622;2022-08-11T17:38:29;4.65;;;2.00;;
48241;SDS011;34041;51.812;4.622;2022-08-11T17:41:30;2.95;;;2.10;;
48241;SDS011;34041;51.812;4.622;2022-08-11T17:44:49;2.40;;;1.70;;
48241;SDS011;34041;51.812;4.622;2022-08-11T17:48:11;3.08;;;1.60;;
48241;SDS011;34041;51.812;4.622;2022-08-11T17:51:25;3.17;;;1.83;;
48241;SDS011;34041;51.812;4.622;2022-08-11T17:54:45;3.45;;;2.08;;
48241;SDS011;34041;51.812;4.622;2022-08-11T17:58:04;2.70;;;1.70;;
48241;SDS011;34041;51.812;4.622;2022-08-11T18:01:24;2.78;;;1.60;;
48241;SDS011;34041;51.812;4.622;2022-08-11T18:04:25;2.35;;;1.80;;
48241;SDS011;34041;51.812;4.622;2022-08-11T18:07:25;3.88;;;2.40;;
48241;SDS011;34041;51.812;4.622;2022-08-11T18:10:44;2.65;;;1.58;;
48241;SDS011;34041;51.812;4.622;2022-08-11T18:14:04;2.53;;;1.50;;
48241;SDS011;34041;51.812;4.622;2022-08-11T18:17:23;2.97;;;1.58;;
48241;SDS011;34041;51.812;4.622;2022-08-11T18:20:42;4.47;;;1.98;;
48241;SDS011;34041;51.812;4.622;2022-08-11T18:24:02;2.95;;;1.77;;
48241;SDS011;34041;51.812;4.622;2022-08-11T18:27:22;3.20;;;1.60;;
48241;SDS011;34041;51.812;4.622;2022-08-11T18:30:44;5.18;;;2.03;;
48241;SDS011;34041;51.812;4.622;2022-08-11T18:34:03;2.40;;;1.73;;
48241;SDS011;34041;51.812;4.622;2022-08-11T18:37:30;3.33;;;2.20;;
48241;SDS011;34041;51.812;4.622;2022-08-11T18:40:50;3.03;;;1.55;;
48241;SDS011;34041;51.812;4.622;2022-08-11T18:44:09;3.45;;;1.60;;
48241;SDS011;34041;51.812;4.622;2022-08-11T18:47:30;3.38;;;1.92;;
48241;SDS011;34041;51.812;4.622;2022-08-11T18:50:50;3.05;;;1.80;;
48241;SDS011;34041;51.812;4.622;2022-08-11T18:54:10;1.60;;;1.10;;
48241;SDS011;34041;51.812;4.622;2022-08-11T18:57:29;2.60;;;1.70;;
48241;SDS011;34041;51.812;4.622;2022-08-11T19:00:48;3.50;;;1.73;;
48241;SDS011;34041;51.812;4.622;2022-08-11T19:04:07;3.58;;;1.83;;
48241;SDS011;34041;51.812;4.622;2022-08-11T19:07:27;2.75;;;1.60;;
48241;SDS011;34041;51.812;4.622;2022-08-11T19:10:46;2.67;;;1.75;;
48241;SDS011;34041;51.812;4.622;2022-08-11T19:14:05;3.40;;;1.55;;
48241;SDS011;34041;51.812;4.622;2022-08-11T19:17:25;2.30;;;1.85;;
48241;SDS011;34041;51.812;4.622;2022-08-11T19:20:45;2.55;;;1.70;;
48241;SDS011;34041;51.812;4.622;2022-08-11T19:24:04;4.93;;;1.85;;
48241;SDS011;34041;51.812;4.622;2022-08-11T19:27:25;2.60;;;1.50;;
48241;SDS011;34041;51.812;4.622;2022-08-11T19:30:45;1.90;;;1.35;;
48241;SDS011;34041;51.812;4.622;2022-08-11T19:34:04;3.58;;;1.90;;
48241;SDS011;34041;51.812;4.622;2022-08-11T19:37:23;3.72;;;2.05;;
48241;SDS011;34041;51.812;4.622;2022-08-11T19:40:43;3.33;;;1.90;;
48241;SDS011;34041;51.812;4.622;2022-08-11T19:44:02;2.53;;;1.60;;
48241;SDS011;34041;51.812;4.622;2022-08-11T19:47:22;2.30;;;1.40;;
48241;SDS011;34041;51.812;4.622;2022-08-11T19:50:40;3.35;;;1.60;;
48241;SDS011;34041;51.812;4.622;2022-08-11T19:54:00;2.40;;;1.40;;
48241;SDS011;34041;51.812;4.622;2022-08-11T19:57:20;3.35;;;1.88;;
48241;SDS011;34041;51.812;4.622;2022-08-11T20:00:40;3.28;;;1.75;;
48241;SDS011;34041;51.812;4.622;2022-08-11T20:03:59;2.45;;;1.65;;
48241;SDS011;34041;51.812;4.622;2022-08-11T20:07:18;2.90;;;1.55;;
48241;SDS011;34041;51.812;4.622;2022-08-11T20:10:37;5.10;;;1.70;;
48241;SDS011;34041;51.812;4.622;2022-08-11T20:13:56;3.80;;;1.98;;
48241;SDS011;34041;51.812;4.622;2022-08-11T20:17:15;2.80;;;1.70;;
48241;SDS011;34041;51.812;4.622;2022-08-11T20:20:34;4.35;;;1.85;;
48241;SDS011;34041;51.812;4.622;2022-08-11T20:23:54;4.57;;;1.80;;
48241;SDS011;34041;51.812;4.622;2022-08-11T20:27:14;4.25;;;1.80;;
48241;SDS011;34041;51.812;4.622;2022-08-11T20:30:33;3.42;;;2.10;;
48241;SDS011;34041;51.812;4.622;2022-08-11T20:33:53;4.15;;;2.30;;
48241;SDS011;34041;51.812;4.622;2022-08-11T20:37:12;2.42;;;2.00;;
48241;SDS011;34041;51.812;4.622;2022-08-11T20:40:31;2.95;;;2.05;;
48241;SDS011;34041;51.812;4.622;2022-08-11T20:43:51;4.13;;;2.08;;
48241;SDS011;34041;51.812;4.622;2022-08-11T20:47:10;2.53;;;1.75;;
48241;SDS011;34041;51.812;4.622;2022-08-11T20:50:30;2.90;;;2.20;;
48241;SDS011;34041;51.812;4.622;2022-08-11T20:53:49;3.53;;;2.08;;
48241;SDS011;34041;51.812;4.622;2022-08-11T20:57:09;4.68;;;2.28;;
48241;SDS011;34041;51.812;4.622;2022-08-11T21:00:28;3.55;;;2.28;;
48241;SDS011;34041;51.812;4.622;2022-08-11T21:03:47;4.65;;;2.45;;
48241;SDS011;34041;51.812;4.622;2022-08-11T21:07:06;5.40;;;2.30;;
48241;SDS011;34041;51.812;4.622;2022-08-11T21:10:27;7.03;;;2.30;;
48241;SDS011;34041;51.812;4.622;2022-08-11T21:13:46;2.90;;;2.20;;
48241;SDS011;34041;51.812;4.622;2022-08-11T21:17:05;3.72;;;1.60;;
48241;SDS011;34041;51.812;4.622;2022-08-11T21:20:25;3.22;;;2.33;;
48241;SDS011;34041;51.812;4.622;2022-08-11T21:23:45;3.35;;;1.98;;
48241;SDS011;34041;51.812;4.622;2022-08-11T21:27:06;3.72;;;2.15;;
48241;SDS011;34041;51.812;4.622;2022-08-11T21:30:26;3.45;;;2.30;;
48241;SDS011;34041;51.812;4.622;2022-08-11T21:33:46;3.20;;;2.30;;
48241;SDS011;34041;51.812;4.622;2022-08-11T21:37:06;4.70;;;2.95;;
48241;SDS011;34041;51.812;4.622;2022-08-11T21:40:25;5.07;;;2.53;;
48241;SDS011;34041;51.812;4.622;2022-08-11T21:43:46;4.07;;;2.55;;
48241;SDS011;34041;51.812;4.622;2022-08-11T21:47:05;3.33;;;2.17;;
48241;SDS011;34041;51.812;4.622;2022-08-11T21:50:24;3.47;;;2.55;;
48241;SDS011;34041;51.812;4.622;2022-08-11T21:53:43;3.67;;;2.55;;
48241;SDS011;34041;51.812;4.622;2022-08-11T21:57:02;3.20;;;2.08;;
48241;SDS011;34041;51.812;4.622;2022-08-11T22:00:22;5.32;;;2.35;;
48241;SDS011;34041;51.812;4.622;2022-08-11T22:03:41;6.53;;;2.88;;
48241;SDS011;34041;51.812;4.622;2022-08-11T22:07:00;3.67;;;2.28;;
48241;SDS011;34041;51.812;4.622;2022-08-11T22:10:20;4.53;;;2.63;;
48241;SDS011;34041;51.812;4.622;2022-08-11T22:13:39;4.63;;;2.67;;
48241;SDS011;34041;51.812;4.622;2022-08-11T22:16:58;4.30;;;2.70;;
48241;SDS011;34041;51.812;4.622;2022-08-11T22:20:17;5.22;;;2.55;;
48241;SDS011;34041;51.812;4.622;2022-08-11T22:23:37;6.07;;;2.58;;